»·PEaware :: AWE180 KOAK-KRNO

AWE180 :: KOAK-KRNO

FLIGHT INFORMATION

Flight Status: Arrived
Operator:
US Airways
More flights by this operator :: More flights under this callsign
Pilot: Etienne B. (28927)
Aircraft: AIRBUS A320
(A320)
More flights by this aircraft type
Origin: KOAK Metro Oakland Intl
United States
Destination: KRNO Reno/Tahoe Intl
United States
More flights between these airports :: More routes between these airports
Route: HUSSH2 ORRCA HOBOA WALAR
File this flight plan on PilotEdge
Remarks: RMK / SIMBRIEF
Altitude:
(Current/Filed)
27,000ft
Speed:
(Current/Filed)
461kts
Departed: 18-Apr-20 07:23 PM
Arrived: 18-Apr-20 07:57 PM
Distance/Time
Traveled:
157nm/0:33
Distance/Time
To Go:
Arrived

Flight Plot

Page will automatically refresh every two minutes.

Flight plan parsing failed; only flown route is shown


Map Options




Map Legend


Flown Route
Filed Route
Departure Airport
Arrival Airport
Navaid (VOR, NDB)
Fix

Horizontal Profiles

Position Reports

Time Latitude Longitude Heading Altitude Ground
Speed
18-Apr-20 18:54 37.710428 -122.216929 63 12ft 0kts
18-Apr-20 18:55 37.710428 -122.216929 63 12ft 0kts
18-Apr-20 18:56 37.710428 -122.216929 63 12ft 0kts
18-Apr-20 18:57 37.710428 -122.216929 63 12ft 0kts
18-Apr-20 18:58 37.710428 -122.216929 63 12ft 0kts
18-Apr-20 18:59 37.710428 -122.216929 63 12ft 0kts
18-Apr-20 19:00 37.710428 -122.216929 63 12ft 0kts
18-Apr-20 19:01 37.710428 -122.216929 63 12ft 0kts
18-Apr-20 19:02 37.710428 -122.216929 63 12ft 0kts
18-Apr-20 19:03 37.710428 -122.216929 63 12ft 0kts
18-Apr-20 19:04 37.710428 -122.216929 63 12ft 0kts
18-Apr-20 19:05 37.710428 -122.216929 63 12ft 0kts
18-Apr-20 19:08 37.710243 -122.216663 26 13ft 0kts
18-Apr-20 19:09 37.710243 -122.216663 26 13ft 0kts
18-Apr-20 19:10 37.710243 -122.216663 26 13ft 0kts
18-Apr-20 19:11 37.710243 -122.216663 26 13ft 0kts
18-Apr-20 19:12 37.710243 -122.216663 26 13ft 0kts
18-Apr-20 19:13 37.710243 -122.216663 26 13ft 0kts
18-Apr-20 19:14 37.710243 -122.216663 26 13ft 0kts
18-Apr-20 19:15 37.710086 -122.216781 48 13ft 2kts
18-Apr-20 19:16 37.710039 -122.217398 125 13ft 0kts
18-Apr-20 19:17 37.710081 -122.217467 127 13ft 0kts
18-Apr-20 19:18 37.709675 -122.216807 128 13ft 12kts
18-Apr-20 19:19 37.707047 -122.217667 217 13ft 12kts
18-Apr-20 19:20 37.705358 -122.216237 129 12ft 13kts
18-Apr-20 19:21 37.702223 -122.213757 217 12ft 14kts
18-Apr-20 19:22 37.712365 -122.230906 306 195ft 170kts
18-Apr-20 19:23 37.736089 -122.293950 289 3175ft 228kts
18-Apr-20 19:24 37.775914 -122.359628 334 6414ft 262kts
18-Apr-20 19:25 37.847517 -122.382712 358 9835ft 276kts
18-Apr-20 19:26 37.928438 -122.379529 14 12021ft 327kts
18-Apr-20 19:27 37.997781 -122.289726 49 13653ft 380kts
18-Apr-20 19:28 38.063797 -122.181806 48 15833ft 395kts
18-Apr-20 19:29 38.132051 -122.069543 48 17811ft 409kts
18-Apr-20 19:30 38.202234 -121.953607 47 19105ft 415kts
18-Apr-20 19:31 38.272679 -121.836841 47 19104ft 417kts
18-Apr-20 19:32 38.343059 -121.719740 47 19110ft 417kts
18-Apr-20 19:33 38.414248 -121.600855 46 20570ft 428kts
18-Apr-20 19:34 38.493935 -121.487658 38 22154ft 433kts
18-Apr-20 19:35 38.580077 -121.377672 37 23635ft 443kts
18-Apr-20 19:36 38.667771 -121.265308 37 24946ft 452kts
18-Apr-20 19:37 38.757126 -121.150398 37 26150ft 459kts
18-Apr-20 19:38 38.847789 -121.033362 38 27105ft 463kts
18-Apr-20 19:39 38.938489 -120.915845 39 27117ft 467kts
18-Apr-20 19:40 39.028686 -120.798440 39 26579ft 435kts
18-Apr-20 19:41 39.107291 -120.695925 39 24499ft 386kts
18-Apr-20 19:42 39.181135 -120.599174 39 21446ft 373kts
18-Apr-20 19:43 39.252263 -120.505698 40 18365ft 361kts
18-Apr-20 19:44 39.320705 -120.415502 40 15960ft 339kts
18-Apr-20 19:45 39.385799 -120.329504 41 14349ft 332kts
18-Apr-20 19:46 39.446996 -120.241237 47 12765ft 326kts
18-Apr-20 19:47 39.465406 -120.126188 84 12083ft 334kts
18-Apr-20 19:48 39.434163 -120.017668 128 12072ft 331kts
18-Apr-20 19:49 39.378899 -119.922275 128 11872ft 327kts
18-Apr-20 19:50 39.314163 -119.843105 141 10425ft 309kts
18-Apr-20 19:51 39.299300 -119.750156 40 8949ft 250kts
18-Apr-20 19:52 39.348199 -119.761991 333 7625ft 180kts
18-Apr-20 19:53 39.394564 -119.768311 352 6566ft 155kts
18-Apr-20 19:54 39.436774 -119.768723 353 5580ft 149kts
18-Apr-20 19:55 39.478506 -119.769067 352 4644ft 147kts
18-Apr-20 19:56 39.503153 -119.769865 323 4424ft 24kts
18-Apr-20 19:57 39.503595 -119.770476 303 4424ft 5kts
18-Apr-20 19:58 39.504498 -119.772368 318 4424ft 0kts

Navigation Log

Ident Type
Flight plan parsing failed, navigation log unavailable